createdAt,value
2018-09-05T00:01:22.463Z,99947.67
2018-09-05T00:03:48.486Z,99944.39
2018-09-05T00:06:14.502Z,99948.40
2018-09-05T00:08:40.524Z,99949.52
2018-09-05T00:11:06.512Z,99945.28
2018-09-05T00:13:32.531Z,99945.45
2018-09-05T00:15:58.525Z,99947.28
2018-09-05T00:18:24.533Z,99939.54
2018-09-05T00:20:50.515Z,99939.95
2018-09-05T00:23:16.518Z,99933.89
2018-09-05T00:25:42.515Z,99935.95
2018-09-05T00:28:08.510Z,99943.22
2018-09-05T00:30:34.511Z,99938.34
2018-09-05T00:33:00.560Z,99935.38
2018-09-05T00:35:26.529Z,99934.49
2018-09-05T00:37:52.542Z,99935.28
2018-09-05T00:40:18.548Z,99938.09
2018-09-05T00:42:44.541Z,99936.48
2018-09-05T00:45:10.540Z,99940.80
2018-09-05T00:47:36.533Z,99934.53
2018-09-05T00:50:02.514Z,99941.98
2018-09-05T00:52:28.498Z,99937.37
2018-09-05T00:54:54.490Z,99937.85
2018-09-05T00:57:20.502Z,99940.75
2018-09-05T00:59:47.205Z,99941.57
2018-09-05T01:02:13.221Z,99945.02
2018-09-05T01:04:39.221Z,99945.60
2018-09-05T01:07:05.200Z,99949.59
2018-09-05T01:09:31.224Z,99946.00
2018-09-05T01:11:57.218Z,99947.77
2018-09-05T01:14:23.207Z,99949.75
2018-09-05T01:17:19.264Z,99949.16
2018-09-05T01:19:45.256Z,99953.05
2018-09-05T01:22:11.247Z,99957.25
2018-09-05T01:24:37.246Z,99959.17
2018-09-05T01:27:03.241Z,99966.08
2018-09-05T01:29:29.259Z,99960.80
2018-09-05T01:31:55.240Z,99965.10
2018-09-05T01:34:21.236Z,99963.81
2018-09-05T01:36:47.211Z,99961.82
2018-09-05T01:39:13.222Z,99958.99
2018-09-05T01:41:39.231Z,99968.75
2018-09-05T01:44:05.254Z,99973.16
2018-09-05T01:46:31.288Z,99964.52
2018-09-05T01:48:57.402Z,99966.38
2018-09-05T01:51:23.415Z,99966.86
2018-09-05T01:53:49.409Z,99969.67
2018-09-05T01:56:15.400Z,99966.89
2018-09-05T01:58:41.413Z,99957.06
2018-09-05T02:01:07.434Z,99956.62
2018-09-05T02:03:33.428Z,99953.47
2018-09-05T02:05:59.443Z,99950.55
2018-09-05T02:08:25.454Z,99956.54
2018-09-05T02:10:51.403Z,99960.53
2018-09-05T02:13:17.363Z,99958.47
2018-09-05T02:15:43.291Z,99960.39
2018-09-05T02:18:09.226Z,99962.59
2018-09-05T02:20:35.176Z,99960.80
2018-09-05T02:23:01.099Z,99960.29
2018-09-05T02:25:27.061Z,99955.11
2018-09-05T02:27:52.994Z,99961.30
2018-09-05T02:30:18.948Z,99966.86
2018-09-05T02:32:44.880Z,99960.23
2018-09-05T02:35:11.431Z,99966.84
2018-09-05T02:37:37.389Z,99969.28
2018-09-05T02:40:03.351Z,99971.44
2018-09-05T02:42:29.290Z,99962.98
2018-09-05T02:44:55.241Z,99971.82
2018-09-05T02:47:21.180Z,99971.55
2018-09-05T02:49:47.133Z,99964.84
2018-09-05T02:52:13.103Z,99966.14
2018-09-05T02:54:39.047Z,99969.10
2018-09-05T02:57:04.993Z,99971.04
2018-09-05T02:59:30.942Z,99976.69
2018-09-05T03:01:56.879Z,99968.92
2018-09-05T03:04:22.835Z,99972.18
2018-09-05T03:06:48.789Z,99967.28
2018-09-05T03:09:14.811Z,99968.32
2018-09-05T03:11:40.680Z,99969.20
2018-09-05T03:14:06.638Z,99973.59
2018-09-05T03:16:32.596Z,99971.27
2018-09-05T03:18:58.626Z,99974.34
2018-09-05T03:21:24.575Z,99973.62
2018-09-05T03:23:50.543Z,99969.61
2018-09-05T03:26:16.523Z,99974.22
2018-09-05T03:28:42.536Z,99981.30
2018-09-05T03:31:08.512Z,99975.41
2018-09-05T03:33:34.482Z,99982.24
2018-09-05T03:36:00.484Z,99986.98
2018-09-05T03:38:26.541Z,99975.12
2018-09-05T03:40:52.673Z,99977.82
2018-09-05T03:43:18.605Z,99980.89
2018-09-05T03:45:44.569Z,99980.70
2018-09-05T03:48:11.560Z,99984.95
2018-09-05T03:50:37.521Z,99984.34
2018-09-05T03:53:03.516Z,99989.98
2018-09-05T03:55:29.491Z,99992.04
2018-09-05T03:57:55.449Z,99989.34
2018-09-05T04:00:21.409Z,99995.98
2018-09-05T04:02:47.361Z,100000.88
2018-09-05T04:05:13.366Z,99998.98
2018-09-05T04:07:39.274Z,100004.16
2018-09-05T04:10:05.225Z,99999.96
2018-09-05T04:12:31.184Z,100001.61
2018-09-05T04:14:57.127Z,100005.09
2018-09-05T04:17:23.090Z,100003.86
2018-09-05T04:19:49.049Z,100010.52
2018-09-05T04:22:15.028Z,100004.55
2018-09-05T04:24:40.988Z,100006.98
2018-09-05T04:27:06.934Z,100011.93
2018-09-05T04:29:32.915Z,100011.27
2018-09-05T04:31:58.899Z,100012.44
2018-09-05T04:34:24.852Z,100026.02
2018-09-05T04:36:50.816Z,100022.47
2018-09-05T04:39:16.788Z,100018.36
2018-09-05T04:41:42.765Z,100023.99
2018-09-05T04:44:08.715Z,100027.97
2018-09-05T04:46:34.706Z,100020.88
2018-09-05T04:49:00.633Z,100020.31
2018-09-05T04:51:26.605Z,100027.13
2018-09-05T04:53:52.546Z,100031.30
2018-09-05T04:56:18.481Z,100032.98
2018-09-05T04:58:44.451Z,100032.69
2018-09-05T05:01:10.425Z,100031.63
2018-09-05T05:03:36.370Z,100034.47
2018-09-05T05:06:02.681Z,100031.81
2018-09-05T05:08:28.244Z,100040.34
2018-09-05T05:10:54.199Z,100031.95
2018-09-05T05:13:20.141Z,100037.53
2018-09-05T05:15:46.095Z,100036.34
2018-09-05T05:18:12.029Z,100042.57
2018-09-05T05:20:37.961Z,100041.19
2018-09-05T05:23:03.903Z,100038.41
2018-09-05T05:25:29.884Z,100039.12
2018-09-05T05:27:55.821Z,100042.67
2018-09-05T05:30:21.757Z,100057.69
2018-09-05T05:32:47.785Z,100054.61
2018-09-05T05:35:13.713Z,100063.73
2018-09-05T05:37:39.675Z,100058.09
2018-09-05T05:40:05.631Z,100062.78
2018-09-05T05:45:04.077Z,100071.97
2018-09-05T05:47:30.045Z,100073.16
2018-09-05T05:49:55.983Z,100071.91
2018-09-05T05:52:21.937Z,100078.44
2018-09-05T05:54:47.916Z,100076.84
2018-09-05T05:57:13.892Z,100069.80
2018-09-05T05:59:39.845Z,100073.59
2018-09-05T06:02:05.802Z,100074.16
2018-09-05T06:04:31.752Z,100077.02
2018-09-05T06:06:57.688Z,100079.42
2018-09-05T06:09:23.651Z,100077.58
2018-09-05T06:11:49.590Z,100076.48
2018-09-05T06:14:15.533Z,100080.05
2018-09-05T06:16:41.499Z,100082.86
2018-09-05T06:19:07.454Z,100083.34
2018-09-05T06:21:33.413Z,100084.33
2018-09-05T06:23:59.489Z,100084.95
2018-09-05T06:26:25.432Z,100081.91
2018-09-05T06:28:51.395Z,100087.87
2018-09-05T06:31:17.594Z,100087.86
2018-09-05T06:33:43.349Z,100086.47
2018-09-05T06:36:09.278Z,100093.10
2018-09-05T06:38:35.234Z,100093.91
2018-09-05T06:41:01.161Z,100091.30
2018-09-05T06:43:27.112Z,100094.61
2018-09-05T06:45:53.067Z,100091.02
2018-09-05T06:48:19.008Z,100094.04
2018-09-05T06:50:44.954Z,100086.90
2018-09-05T06:53:10.885Z,100090.77
2018-09-05T06:55:36.821Z,100088.52
2018-09-05T06:58:02.775Z,100089.50
2018-09-05T07:00:28.718Z,100089.75
2018-09-05T07:02:54.696Z,100093.25
2018-09-05T07:05:20.664Z,100096.28
2018-09-05T07:07:46.628Z,100097.47
2018-09-05T07:10:12.574Z,100097.33
2018-09-05T07:12:38.513Z,100098.56
2018-09-05T07:15:04.495Z,100096.81
2018-09-05T07:17:30.469Z,100095.73
2018-09-05T07:19:56.448Z,100099.30
2018-09-05T07:22:22.382Z,100100.13
2018-09-05T07:24:48.385Z,100090.25
2018-09-05T07:27:14.316Z,100095.97
2018-09-05T07:29:40.304Z,100095.00
2018-09-05T07:32:06.260Z,100099.05
2018-09-05T07:34:32.231Z,100100.42
2018-09-05T07:36:58.181Z,100100.97
2018-09-05T07:39:24.139Z,100105.36
2018-09-05T07:41:50.089Z,100102.98
2018-09-05T07:44:16.050Z,100100.28
2018-09-05T07:46:41.988Z,100099.47
2018-09-05T07:49:07.945Z,100093.88
2018-09-05T07:51:33.892Z,100101.12
2018-09-05T07:53:59.851Z,100095.13
2018-09-05T07:56:25.793Z,100097.59
2018-09-05T07:58:51.760Z,100102.80
2018-09-05T08:01:17.713Z,100104.46
2018-09-05T08:03:43.687Z,100104.81
2018-09-05T08:06:09.643Z,100102.03
2018-09-05T08:08:35.593Z,100103.88
2018-09-05T08:11:01.531Z,100108.79
2018-09-05T08:13:27.481Z,100106.36
2018-09-05T08:15:53.427Z,100107.38
2018-09-05T08:18:19.384Z,100109.00
2018-09-05T08:20:45.323Z,100111.48
2018-09-05T08:23:11.289Z,100110.16
2018-09-05T08:25:37.255Z,100109.12
2018-09-05T08:28:03.200Z,100109.34
2018-09-05T08:30:29.128Z,100110.02
2018-09-05T08:32:55.058Z,100109.85
2018-09-05T08:35:21.233Z,100117.08
2018-09-05T08:37:47.028Z,100111.26
2018-09-05T08:40:12.967Z,100112.95
2018-09-05T08:42:38.912Z,100109.97
2018-09-05T08:45:05.013Z,100109.43
2018-09-05T08:47:30.876Z,100107.38
2018-09-05T08:49:56.789Z,100109.97
2018-09-05T08:52:22.746Z,100102.29
2018-09-05T08:54:48.701Z,100103.98
2018-09-05T08:57:14.633Z,100102.52
2018-09-05T08:59:40.560Z,100105.49
2018-09-05T09:02:06.493Z,100105.22
2018-09-05T09:04:32.459Z,100098.13
2018-09-05T09:06:58.400Z,100100.02
2018-09-05T09:09:24.343Z,100104.96
2018-09-05T09:11:50.281Z,100095.23
2018-09-05T09:14:16.249Z,100097.98
2018-09-05T09:16:42.192Z,100098.66
2018-09-05T09:19:08.147Z,100102.88
2018-09-05T09:21:34.122Z,100095.31
2018-09-05T09:24:00.086Z,100098.30
2018-09-05T09:26:26.026Z,100098.66
2018-09-05T09:28:51.965Z,100097.28
2018-09-05T09:31:17.899Z,100094.08
2018-09-05T09:33:43.846Z,100095.06
2018-09-05T09:36:09.816Z,100095.56
2018-09-05T09:38:35.862Z,100090.91
2018-09-05T09:41:01.822Z,100089.08
2018-09-05T09:43:27.778Z,100088.48
2018-09-05T09:45:53.770Z,100097.31
2018-09-05T09:48:19.717Z,100081.88
2018-09-05T09:50:45.678Z,100078.81
2018-09-05T09:53:11.650Z,100079.80
2018-09-05T09:55:37.648Z,100077.02
2018-09-05T09:58:03.645Z,100078.84
2018-09-05T10:00:29.618Z,100067.40
2018-09-05T10:02:55.655Z,100070.05
2018-09-05T10:05:21.622Z,100069.09
2018-09-05T10:07:47.568Z,100060.30
2018-09-05T10:10:13.709Z,100064.25
2018-09-05T10:12:39.502Z,100054.27
2018-09-05T10:15:05.463Z,100053.83
2018-09-05T10:17:31.400Z,100051.42
2018-09-05T10:19:57.342Z,100051.98
2018-09-05T10:22:23.285Z,100048.30
2018-09-05T10:24:49.308Z,100046.27
2018-09-05T10:27:15.280Z,100036.53
2018-09-05T10:29:41.289Z,100044.09
2018-09-05T10:32:07.265Z,100042.54
2018-09-05T10:34:33.223Z,100034.52
2018-09-05T10:36:59.196Z,100033.75
2018-09-05T10:39:25.150Z,100029.11
2018-09-05T10:41:51.115Z,100037.80
2018-09-05T10:44:17.142Z,100029.53
2018-09-05T10:46:43.075Z,100029.91
2018-09-05T10:49:09.015Z,100026.92
2018-09-05T10:51:34.993Z,100025.73
2018-09-05T10:54:01.082Z,100017.37
2018-09-05T10:56:27.028Z,100015.41
2018-09-05T10:58:52.991Z,100018.48
2018-09-05T11:01:18.995Z,100018.66
2018-09-05T11:03:44.956Z,100015.73
2018-09-05T11:06:10.923Z,100008.16
2018-09-05T11:08:36.913Z,100011.80
2018-09-05T11:11:02.871Z,100010.48
2018-09-05T11:13:28.987Z,100007.70
2018-09-05T11:15:54.985Z,100004.16
2018-09-05T11:18:20.949Z,100011.77
2018-09-05T11:20:46.914Z,100007.45
2018-09-05T11:23:12.870Z,100002.72
2018-09-05T11:25:38.812Z,100004.17
2018-09-05T11:28:04.751Z,100007.22
2018-09-05T11:30:30.718Z,100000.81
2018-09-05T11:32:56.681Z,99999.78
2018-09-05T11:35:22.674Z,99991.84
2018-09-05T11:37:48.612Z,99990.78
2018-09-05T11:40:14.577Z,99987.00
2018-09-05T11:42:40.543Z,99987.92
2018-09-05T11:45:06.517Z,99990.13
2018-09-05T11:47:32.564Z,99980.30
2018-09-05T11:49:58.628Z,99976.02
2018-09-05T11:52:24.598Z,99980.35
2018-09-05T11:54:50.569Z,99980.08
2018-09-05T11:57:16.527Z,99975.75
2018-09-05T11:59:42.483Z,99974.91
2018-09-05T12:02:08.495Z,99976.95
2018-09-05T12:04:34.392Z,99974.91
2018-09-05T12:07:00.352Z,99969.55
2018-09-05T12:09:26.311Z,99973.26
2018-09-05T12:11:52.276Z,99968.17
2018-09-05T12:14:18.337Z,99965.89
2018-09-05T12:16:44.316Z,99964.69
2018-09-05T12:19:10.282Z,99966.34
2018-09-05T12:21:36.224Z,99964.20
2018-09-05T12:24:02.153Z,99960.14
2018-09-05T12:26:28.129Z,99958.94
2018-09-05T12:28:54.143Z,99956.13
2018-09-05T12:31:20.099Z,99958.67
2018-09-05T12:33:46.062Z,99958.13
2018-09-05T12:36:12.017Z,99960.98
2018-09-05T12:38:37.987Z,99951.00
2018-09-05T12:41:03.925Z,99943.73
2018-09-05T12:43:30.005Z,99939.93
2018-09-05T12:45:55.940Z,99948.31
2018-09-05T12:48:21.907Z,99945.52
2018-09-05T12:50:47.864Z,99942.03
2018-09-05T12:53:13.850Z,99942.12
2018-09-05T12:55:39.812Z,99941.94
2018-09-05T12:58:05.800Z,99937.40
2018-09-05T13:00:31.745Z,99943.15
2018-09-05T13:02:57.713Z,99936.81
2018-09-05T13:05:23.704Z,99940.25
2018-09-05T13:07:49.628Z,99937.94
2018-09-05T13:10:15.560Z,99933.88
2018-09-05T13:12:41.513Z,99926.33
2018-09-05T13:15:07.477Z,99919.86
2018-09-05T13:17:33.507Z,99930.39
2018-09-05T13:19:59.478Z,99927.50
2018-09-05T13:22:25.434Z,99927.27
2018-09-05T13:24:51.366Z,99927.30
2018-09-05T13:27:17.321Z,99928.86
2018-09-05T13:29:43.247Z,99922.36
2018-09-05T13:32:10.008Z,99916.10
2018-09-05T13:34:35.963Z,99919.89
2018-09-05T13:37:02.029Z,99919.41
2018-09-05T13:39:28.014Z,99918.48
2018-09-05T13:41:54.008Z,99914.11
2018-09-05T13:44:19.962Z,99916.34
2018-09-05T13:46:45.908Z,99920.13
2018-09-05T13:49:11.849Z,99915.05
2018-09-05T13:51:37.812Z,99913.97
2018-09-05T13:54:03.779Z,99918.48
2018-09-05T13:56:29.834Z,99914.14
2018-09-05T13:58:55.778Z,99914.23
2018-09-05T14:01:21.820Z,99912.13
2018-09-05T14:03:47.788Z,99907.47
2018-09-05T14:06:13.743Z,99906.17
2018-09-05T14:08:39.714Z,99911.38
2018-09-05T14:11:05.656Z,99905.54
2018-09-05T14:13:31.636Z,99911.77
2018-09-05T14:15:57.620Z,99909.36
2018-09-05T14:18:23.589Z,99908.42
2018-09-05T14:20:49.553Z,99904.37
2018-09-05T14:23:15.523Z,99911.20
2018-09-05T14:25:41.488Z,99908.06
2018-09-05T14:28:07.441Z,99907.13
2018-09-05T14:30:33.373Z,99904.39
2018-09-05T14:32:59.295Z,99902.89
2018-09-05T14:35:25.251Z,99901.75
2018-09-05T14:37:51.194Z,99908.48
2018-09-05T14:40:17.158Z,99903.83
2018-09-05T14:42:43.140Z,99899.94
2018-09-05T14:45:09.140Z,99898.31
2018-09-05T14:47:35.125Z,99893.50
2018-09-05T14:50:01.090Z,99895.33
2018-09-05T14:52:27.049Z,99891.39
2018-09-05T14:54:52.997Z,99892.20
2018-09-05T14:57:18.938Z,99893.14
2018-09-05T14:59:44.916Z,99889.26
2018-09-05T15:02:10.887Z,99889.62
2018-09-05T15:04:36.825Z,99889.91
2018-09-05T15:07:02.757Z,99889.77
2018-09-05T15:09:28.685Z,99884.98
2018-09-05T15:11:54.633Z,99890.91
2018-09-05T15:14:20.560Z,99885.19
2018-09-05T15:16:46.511Z,99887.03
2018-09-05T15:19:12.487Z,99887.36
2018-09-05T15:21:38.457Z,99885.89
2018-09-05T15:24:04.439Z,99884.21
2018-09-05T15:26:30.376Z,99883.61
2018-09-05T15:28:56.338Z,99883.55
2018-09-05T15:31:22.325Z,99877.08
2018-09-05T15:33:48.301Z,99879.01
2018-09-05T15:36:14.253Z,99878.47
2018-09-05T15:38:40.198Z,99874.41
2018-09-05T15:41:06.170Z,99870.07
2018-09-05T15:43:32.106Z,99866.73
2018-09-05T15:45:58.071Z,99865.16
2018-09-05T15:48:24.003Z,99847.73
2018-09-05T15:50:49.979Z,99868.68
2018-09-05T15:53:15.934Z,99865.37
2018-09-05T15:55:41.914Z,99866.02
2018-09-05T15:58:07.865Z,99866.72
2018-09-05T16:00:33.811Z,99862.98
2018-09-05T16:02:59.762Z,99855.52
2018-09-05T16:05:25.731Z,99858.95
2018-09-05T16:07:51.669Z,99853.77
2018-09-05T16:10:17.663Z,99855.78
2018-09-05T16:12:43.632Z,99848.11
2018-09-05T16:15:09.663Z,99858.38
2018-09-05T16:17:35.621Z,99849.89
2018-09-05T16:20:01.607Z,99858.77
2018-09-05T16:22:27.539Z,99855.38
2018-09-05T16:24:53.519Z,99850.44
2018-09-05T16:27:19.480Z,99855.22
2018-09-05T16:29:45.519Z,99850.48
2018-09-05T16:32:11.452Z,99853.25
2018-09-05T16:34:37.381Z,99856.41
2018-09-05T16:37:03.327Z,99858.66
2018-09-05T16:39:29.298Z,99859.40
2018-09-05T16:41:55.241Z,99855.06
2018-09-05T16:44:21.214Z,99862.53
2018-09-05T16:46:47.183Z,99859.83
2018-09-05T16:49:13.135Z,99862.42
2018-09-05T16:51:39.087Z,99858.71
2018-09-05T16:54:05.045Z,99859.45
2018-09-05T16:56:31.011Z,99862.20
2018-09-05T16:58:56.990Z,99863.09
2018-09-05T17:01:22.964Z,99865.80
2018-09-05T17:03:48.941Z,99867.59
2018-09-05T17:06:14.915Z,99864.67
2018-09-05T17:08:40.893Z,99858.98
2018-09-05T17:11:06.889Z,99863.33
2018-09-05T17:13:32.813Z,99860.39
2018-09-05T17:15:58.796Z,99859.49
2018-09-05T17:18:24.759Z,99860.24
2018-09-05T17:20:50.755Z,99870.77
2018-09-05T17:23:16.747Z,99866.14
2018-09-05T17:25:42.735Z,99860.60
2018-09-05T17:28:08.793Z,99867.26
2018-09-05T17:30:34.802Z,99861.53
2018-09-05T17:33:00.764Z,99863.09
2018-09-05T17:35:26.746Z,99866.33
2018-09-05T17:37:52.781Z,99866.72
2018-09-05T17:40:18.735Z,99868.37
2018-09-05T17:42:44.688Z,99871.66
2018-09-05T17:45:10.644Z,99873.13
2018-09-05T17:47:36.598Z,99875.06
2018-09-05T17:50:02.562Z,99873.41
2018-09-05T17:52:28.582Z,99874.80
2018-09-05T17:54:54.746Z,99871.45
2018-09-05T17:57:20.867Z,99872.66
2018-09-05T17:59:47.182Z,99878.95
2018-09-05T18:02:13.150Z,99878.55
2018-09-05T18:04:39.129Z,99880.97
2018-09-05T18:07:05.093Z,99876.74
2018-09-05T18:09:31.077Z,99882.08
2018-09-05T18:11:57.063Z,99877.54
2018-09-05T18:14:23.012Z,99875.01
2018-09-05T18:16:48.988Z,99876.21
2018-09-05T18:19:15.101Z,99877.11
2018-09-05T18:21:41.056Z,99876.53
2018-09-05T18:24:07.031Z,99876.93
2018-09-05T18:26:33.009Z,99880.88
2018-09-05T18:28:58.972Z,99885.27
2018-09-05T18:31:24.957Z,99886.39
2018-09-05T18:33:51.039Z,99885.11
2018-09-05T18:36:17.149Z,99885.89
2018-09-05T18:38:43.181Z,99886.55
2018-09-05T18:41:09.229Z,99889.78
2018-09-05T18:43:35.273Z,99888.56
2018-09-05T18:46:01.216Z,99890.81
2018-09-05T18:48:27.220Z,99891.71
2018-09-05T18:50:53.304Z,99892.02
2018-09-05T18:53:19.405Z,99888.59
2018-09-05T18:55:45.411Z,99891.97
2018-09-05T18:58:11.448Z,99894.81
2018-09-05T19:00:37.478Z,99888.97
2018-09-05T19:03:03.543Z,99888.80
2018-09-05T19:05:29.539Z,99892.83
2018-09-05T19:07:55.512Z,99892.93
2018-09-05T19:10:21.477Z,99888.97
2018-09-05T19:12:47.519Z,99891.89
2018-09-05T19:15:13.518Z,99881.73
2018-09-05T19:17:39.515Z,99886.43
2018-09-05T19:20:05.480Z,99882.79
2018-09-05T19:22:31.579Z,99884.19
2018-09-05T19:24:57.509Z,99885.17
2018-09-05T19:27:23.525Z,99893.17
2018-09-05T19:29:49.554Z,99888.74
2018-09-05T19:32:15.539Z,99883.86
2018-09-05T19:34:41.498Z,99882.43
2018-09-05T19:37:07.515Z,99879.36
2018-09-05T19:39:33.531Z,99879.47
2018-09-05T19:41:59.528Z,99881.22
2018-09-05T19:44:25.526Z,99878.69
2018-09-05T19:46:51.550Z,99876.95
2018-09-05T19:49:17.593Z,99879.63
2018-09-05T19:51:43.527Z,99877.73
2018-09-05T19:54:09.523Z,99882.66
2018-09-05T19:56:35.521Z,99875.17
2018-09-05T19:59:01.481Z,99882.80
2018-09-05T20:01:27.456Z,99874.61
2018-09-05T20:03:53.399Z,99877.41
2018-09-05T20:06:19.339Z,99880.58
2018-09-05T20:08:45.346Z,99881.98
2018-09-05T20:11:11.324Z,99880.74
2018-09-05T20:13:37.309Z,99881.52
2018-09-05T20:16:03.264Z,99884.66
2018-09-05T20:18:29.220Z,99885.63
2018-09-05T20:20:55.169Z,99882.08
2018-09-05T20:23:21.163Z,99882.34
2018-09-05T20:25:47.149Z,99889.09
2018-09-05T20:28:13.132Z,99883.73
2018-09-05T20:30:39.121Z,99886.75
2018-09-05T20:33:05.174Z,99876.52
2018-09-05T20:35:31.080Z,99886.15
2018-09-05T20:37:57.050Z,99880.47
2018-09-05T20:40:23.084Z,99886.14
2018-09-05T20:42:49.031Z,99880.14
2018-09-05T20:45:14.997Z,99886.39
2018-09-05T20:47:40.963Z,99884.11
2018-09-05T20:50:06.899Z,99890.80
2018-09-05T20:52:32.846Z,99891.92
2018-09-05T20:54:58.785Z,99889.42
2018-09-05T20:57:24.740Z,99885.03
2018-09-05T20:59:50.693Z,99885.70
2018-09-05T21:02:16.645Z,99883.75
2018-09-05T21:04:42.614Z,99878.96
2018-09-05T21:07:08.560Z,99881.91
2018-09-05T21:09:34.502Z,99884.20
2018-09-05T21:12:00.500Z,99882.98
2018-09-05T21:14:26.494Z,99882.22
2018-09-05T21:16:52.444Z,99880.25
2018-09-05T21:19:18.386Z,99881.33
2018-09-05T21:21:44.312Z,99881.47
2018-09-05T21:24:10.246Z,99878.50
2018-09-05T21:26:36.254Z,99878.64
2018-09-05T21:29:02.191Z,99871.25
2018-09-05T21:31:28.149Z,99877.02
2018-09-05T21:33:54.105Z,99879.18
2018-09-05T21:36:20.072Z,99878.52
2018-09-05T21:38:46.031Z,99873.33
2018-09-05T21:41:11.991Z,99879.70
2018-09-05T21:43:37.929Z,99877.91
2018-09-05T21:46:03.891Z,99870.92
2018-09-05T21:48:29.841Z,99863.83
2018-09-05T21:50:55.821Z,99865.58
2018-09-05T21:53:21.809Z,99866.38
2018-09-05T21:55:47.825Z,99872.56
2018-09-05T21:58:13.787Z,99872.81
2018-09-05T22:00:39.759Z,99870.56
2018-09-05T22:03:05.712Z,99874.95
2018-09-05T22:05:31.674Z,99870.42
2018-09-05T22:07:57.612Z,99875.47
2018-09-05T22:10:25.035Z,99862.55
2018-09-05T22:12:51.143Z,99872.41
2018-09-05T22:15:17.096Z,99873.70
2018-09-05T22:17:43.057Z,99863.51
2018-09-05T22:20:09.048Z,99869.31
2018-09-05T22:22:34.983Z,99867.73
2018-09-05T22:25:00.972Z,99878.09
2018-09-05T22:27:26.929Z,99873.47
2018-09-05T22:29:52.881Z,99869.46
2018-09-05T22:32:18.944Z,99870.61
2018-09-05T22:34:44.891Z,99875.03
2018-09-05T22:37:10.823Z,99875.02
2018-09-05T22:39:36.776Z,99875.11
2018-09-05T22:42:02.731Z,99873.02
2018-09-05T22:46:54.515Z,99870.40
2018-09-05T22:49:20.457Z,99866.94
2018-09-05T22:51:46.417Z,99861.05
2018-09-05T22:54:12.416Z,99864.05
2018-09-05T22:56:38.369Z,99857.38
2018-09-05T22:59:04.321Z,99857.95
2018-09-05T23:01:30.282Z,99868.03
2018-09-05T23:03:56.228Z,99867.94
2018-09-05T23:06:22.204Z,99863.68
2018-09-05T23:08:48.156Z,99860.16
2018-09-05T23:11:14.125Z,99857.81
2018-09-05T23:13:40.088Z,99857.27
2018-09-05T23:16:06.021Z,99858.45
2018-09-05T23:18:32.121Z,99852.02
2018-09-05T23:20:58.180Z,99849.30
2018-09-05T23:23:24.143Z,99852.09
2018-09-05T23:25:50.097Z,99839.95
2018-09-05T23:28:16.066Z,99841.73
2018-09-05T23:30:42.041Z,99838.46
2018-09-05T23:33:07.980Z,99838.31
2018-09-05T23:35:33.933Z,99842.03
2018-09-05T23:37:59.877Z,99835.39
2018-09-05T23:40:25.841Z,99841.23
2018-09-05T23:42:51.808Z,99835.39
2018-09-05T23:45:17.763Z,99835.74
2018-09-05T23:47:43.732Z,99841.47
2018-09-05T23:50:09.660Z,99832.98
2018-09-05T23:52:35.605Z,99834.86
2018-09-05T23:55:01.545Z,99831.53
2018-09-05T23:57:27.500Z,99830.31
2018-09-05T23:59:53.465Z,99835.88
